Callaway, Florida
Current Conditions -  °F | °C
As of 7:58 AM on Friday 24 Oct 2014 (Local Time) from KPAM Reporting Station
Clear Clear  
Wind Chill: 57°   Ceiling: Unl
Heat Index: 57°   Visibility: 10mi
Dew Point: 52°   Wind: 2mph
Humidity: 83%   Direction: 40°NE
Pressure: 30.07"   Gusts: NA
Location:  30.1957°N, 85.4833°W
Report Text: KPAM 241258Z AUTO 04002KT 10SM CLR 14/11 A3007 RMK AO2 SLP186 T01370109 $
Loading
Personal Weather Stations






























Interactive Weather Map
Tropical Storm Tracking
New forecast layout! Learn more

10-Day Weather Forecast

Advertisements
Track Severe Weather on mobile